sensor_id;sensor_type;location;lat;lon;timestamp;P1;durP1;ratioP1;P2;durP2;ratioP2
10226;SDS011;15634;48.766;2.272;2022-12-11T00:01:55;26.90;;;12.90;;
10226;SDS011;15634;48.766;2.272;2022-12-11T00:04:22;24.10;;;12.68;;
10226;SDS011;15634;48.766;2.272;2022-12-11T00:06:49;28.80;;;12.45;;
10226;SDS011;15634;48.766;2.272;2022-12-11T00:09:16;24.88;;;11.88;;
10226;SDS011;15634;48.766;2.272;2022-12-11T00:11:43;25.33;;;13.07;;
10226;SDS011;15634;48.766;2.272;2022-12-11T00:14:10;23.92;;;12.63;;
10226;SDS011;15634;48.766;2.272;2022-12-11T00:16:39;23.75;;;11.85;;
10226;SDS011;15634;48.766;2.272;2022-12-11T00:19:06;23.23;;;11.43;;
10226;SDS011;15634;48.766;2.272;2022-12-11T00:21:33;22.73;;;11.23;;
10226;SDS011;15634;48.766;2.272;2022-12-11T00:24:00;22.25;;;11.20;;
10226;SDS011;15634;48.766;2.272;2022-12-11T00:26:26;23.27;;;11.60;;
10226;SDS011;15634;48.766;2.272;2022-12-11T00:28:53;20.80;;;11.18;;
10226;SDS011;15634;48.766;2.272;2022-12-11T00:31:21;21.08;;;10.70;;
10226;SDS011;15634;48.766;2.272;2022-12-11T00:33:49;22.45;;;11.32;;
10226;SDS011;15634;48.766;2.272;2022-12-11T00:36:17;21.23;;;11.70;;
10226;SDS011;15634;48.766;2.272;2022-12-11T00:38:45;24.70;;;11.27;;
10226;SDS011;15634;48.766;2.272;2022-12-11T00:41:13;21.40;;;11.25;;
10226;SDS011;15634;48.766;2.272;2022-12-11T00:43:40;28.58;;;13.10;;
10226;SDS011;15634;48.766;2.272;2022-12-11T00:46:06;29.17;;;14.45;;
10226;SDS011;15634;48.766;2.272;2022-12-11T00:48:33;25.23;;;12.90;;
10226;SDS011;15634;48.766;2.272;2022-12-11T00:51:01;23.30;;;12.10;;
10226;SDS011;15634;48.766;2.272;2022-12-11T00:53:28;23.77;;;12.27;;
10226;SDS011;15634;48.766;2.272;2022-12-11T00:55:54;21.67;;;11.50;;
10226;SDS011;15634;48.766;2.272;2022-12-11T00:58:21;20.60;;;10.75;;
10226;SDS011;15634;48.766;2.272;2022-12-11T01:00:48;17.38;;;9.75;;
10226;SDS011;15634;48.766;2.272;2022-12-11T01:03:15;17.65;;;9.10;;
10226;SDS011;15634;48.766;2.272;2022-12-11T01:05:49;17.13;;;9.35;;
10226;SDS011;15634;48.766;2.272;2022-12-11T01:08:18;18.75;;;9.93;;
10226;SDS011;15634;48.766;2.272;2022-12-11T01:10:44;18.95;;;9.73;;
10226;SDS011;15634;48.766;2.272;2022-12-11T01:13:10;20.27;;;11.35;;
10226;SDS011;15634;48.766;2.272;2022-12-11T01:15:38;20.15;;;10.02;;
10226;SDS011;15634;48.766;2.272;2022-12-11T01:18:05;19.88;;;10.25;;
10226;SDS011;15634;48.766;2.272;2022-12-11T01:20:32;17.05;;;9.20;;
10226;SDS011;15634;48.766;2.272;2022-12-11T01:22:59;16.92;;;9.48;;
10226;SDS011;15634;48.766;2.272;2022-12-11T01:25:27;17.00;;;9.15;;
10226;SDS011;15634;48.766;2.272;2022-12-11T01:27:54;17.02;;;9.07;;
10226;SDS011;15634;48.766;2.272;2022-12-11T01:30:21;21.83;;;10.73;;
10226;SDS011;15634;48.766;2.272;2022-12-11T01:32:49;15.88;;;9.25;;
10226;SDS011;15634;48.766;2.272;2022-12-11T01:35:15;15.68;;;8.05;;
10226;SDS011;15634;48.766;2.272;2022-12-11T01:37:42;14.77;;;8.20;;
10226;SDS011;15634;48.766;2.272;2022-12-11T01:40:10;16.48;;;7.93;;
10226;SDS011;15634;48.766;2.272;2022-12-11T01:42:40;13.63;;;7.30;;
10226;SDS011;15634;48.766;2.272;2022-12-11T01:47:58;13.85;;;7.45;;
10226;SDS011;15634;48.766;2.272;2022-12-11T01:50:27;14.60;;;8.10;;
10226;SDS011;15634;48.766;2.272;2022-12-11T01:52:54;13.88;;;7.88;;
10226;SDS011;15634;48.766;2.272;2022-12-11T01:55:21;16.15;;;7.88;;
10226;SDS011;15634;48.766;2.272;2022-12-11T01:57:49;18.30;;;9.10;;
10226;SDS011;15634;48.766;2.272;2022-12-11T02:00:16;17.35;;;8.80;;
10226;SDS011;15634;48.766;2.272;2022-12-11T02:02:43;16.17;;;8.57;;
10226;SDS011;15634;48.766;2.272;2022-12-11T02:05:10;16.15;;;8.90;;
10226;SDS011;15634;48.766;2.272;2022-12-11T02:07:38;17.60;;;9.27;;
10226;SDS011;15634;48.766;2.272;2022-12-11T02:10:06;16.85;;;8.80;;
10226;SDS011;15634;48.766;2.272;2022-12-11T02:12:37;17.25;;;9.55;;
10226;SDS011;15634;48.766;2.272;2022-12-11T02:15:09;18.05;;;9.13;;
10226;SDS011;15634;48.766;2.272;2022-12-11T02:17:39;17.88;;;9.00;;
10226;SDS011;15634;48.766;2.272;2022-12-11T02:20:08;15.50;;;8.45;;
10226;SDS011;15634;48.766;2.272;2022-12-11T02:22:44;15.40;;;8.07;;
10226;SDS011;15634;48.766;2.272;2022-12-11T02:25:19;13.55;;;7.47;;
10226;SDS011;15634;48.766;2.272;2022-12-11T02:27:49;13.63;;;7.78;;
10226;SDS011;15634;48.766;2.272;2022-12-11T02:30:22;14.65;;;7.95;;
10226;SDS011;15634;48.766;2.272;2022-12-11T02:32:50;12.98;;;7.53;;
10226;SDS011;15634;48.766;2.272;2022-12-11T02:35:20;13.98;;;7.63;;
10226;SDS011;15634;48.766;2.272;2022-12-11T02:37:48;19.25;;;9.05;;
10226;SDS011;15634;48.766;2.272;2022-12-11T02:40:20;22.08;;;10.30;;
10226;SDS011;15634;48.766;2.272;2022-12-11T02:42:48;20.10;;;9.68;;
10226;SDS011;15634;48.766;2.272;2022-12-11T02:45:16;19.73;;;9.65;;
10226;SDS011;15634;48.766;2.272;2022-12-11T02:47:45;14.43;;;7.70;;
10226;SDS011;15634;48.766;2.272;2022-12-11T02:50:13;14.23;;;7.38;;
10226;SDS011;15634;48.766;2.272;2022-12-11T02:52:42;12.32;;;6.88;;
10226;SDS011;15634;48.766;2.272;2022-12-11T02:55:10;14.07;;;7.38;;
10226;SDS011;15634;48.766;2.272;2022-12-11T02:57:38;12.60;;;7.25;;
10226;SDS011;15634;48.766;2.272;2022-12-11T03:00:07;10.52;;;6.47;;
10226;SDS011;15634;48.766;2.272;2022-12-11T03:02:35;11.45;;;6.50;;
10226;SDS011;15634;48.766;2.272;2022-12-11T03:05:04;12.05;;;6.93;;
10226;SDS011;15634;48.766;2.272;2022-12-11T03:07:32;13.35;;;7.22;;
10226;SDS011;15634;48.766;2.272;2022-12-11T03:10:00;11.25;;;6.75;;
10226;SDS011;15634;48.766;2.272;2022-12-11T03:12:27;14.35;;;7.50;;
10226;SDS011;15634;48.766;2.272;2022-12-11T03:14:55;13.30;;;6.80;;
10226;SDS011;15634;48.766;2.272;2022-12-11T03:17:24;13.07;;;6.47;;
10226;SDS011;15634;48.766;2.272;2022-12-11T03:20:03;12.18;;;6.28;;
10226;SDS011;15634;48.766;2.272;2022-12-11T03:22:36;12.07;;;6.85;;
10226;SDS011;15634;48.766;2.272;2022-12-11T03:25:06;11.45;;;6.43;;
10226;SDS011;15634;48.766;2.272;2022-12-11T03:27:35;13.40;;;6.90;;
10226;SDS011;15634;48.766;2.272;2022-12-11T03:30:04;12.85;;;6.82;;
10226;SDS011;15634;48.766;2.272;2022-12-11T03:32:35;10.25;;;6.28;;
10226;SDS011;15634;48.766;2.272;2022-12-11T03:35:05;12.43;;;7.07;;
10226;SDS011;15634;48.766;2.272;2022-12-11T03:37:37;11.50;;;6.38;;
10226;SDS011;15634;48.766;2.272;2022-12-11T03:40:06;10.63;;;6.35;;
10226;SDS011;15634;48.766;2.272;2022-12-11T03:42:36;11.05;;;6.00;;
10226;SDS011;15634;48.766;2.272;2022-12-11T03:45:04;10.32;;;6.28;;
10226;SDS011;15634;48.766;2.272;2022-12-11T03:47:33;11.38;;;6.57;;
10226;SDS011;15634;48.766;2.272;2022-12-11T03:49:59;11.63;;;6.93;;
10226;SDS011;15634;48.766;2.272;2022-12-11T03:52:28;11.77;;;6.63;;
10226;SDS011;15634;48.766;2.272;2022-12-11T03:54:56;12.13;;;6.30;;
10226;SDS011;15634;48.766;2.272;2022-12-11T03:57:26;10.10;;;5.50;;
10226;SDS011;15634;48.766;2.272;2022-12-11T03:59:55;13.18;;;6.25;;
10226;SDS011;15634;48.766;2.272;2022-12-11T04:02:22;11.82;;;5.93;;
10226;SDS011;15634;48.766;2.272;2022-12-11T04:04:48;12.95;;;6.55;;
10226;SDS011;15634;48.766;2.272;2022-12-11T04:07:15;10.63;;;6.20;;
10226;SDS011;15634;48.766;2.272;2022-12-11T04:09:43;11.63;;;6.00;;
10226;SDS011;15634;48.766;2.272;2022-12-11T04:12:10;11.93;;;6.47;;
10226;SDS011;15634;48.766;2.272;2022-12-11T04:14:36;10.43;;;5.95;;
10226;SDS011;15634;48.766;2.272;2022-12-11T04:17:20;12.30;;;6.25;;
10226;SDS011;15634;48.766;2.272;2022-12-11T04:20:00;12.18;;;7.18;;
10226;SDS011;15634;48.766;2.272;2022-12-11T04:22:44;12.13;;;6.78;;
10226;SDS011;15634;48.766;2.272;2022-12-11T04:25:30;14.02;;;7.15;;
10226;SDS011;15634;48.766;2.272;2022-12-11T04:27:56;14.48;;;7.65;;
10226;SDS011;15634;48.766;2.272;2022-12-11T04:30:23;12.48;;;6.68;;
10226;SDS011;15634;48.766;2.272;2022-12-11T04:32:51;12.73;;;7.55;;
10226;SDS011;15634;48.766;2.272;2022-12-11T04:35:18;14.02;;;7.10;;
10226;SDS011;15634;48.766;2.272;2022-12-11T04:37:45;12.90;;;6.85;;
10226;SDS011;15634;48.766;2.272;2022-12-11T04:40:13;12.40;;;6.75;;
10226;SDS011;15634;48.766;2.272;2022-12-11T04:42:42;12.45;;;7.13;;
10226;SDS011;15634;48.766;2.272;2022-12-11T04:45:09;13.13;;;6.47;;
10226;SDS011;15634;48.766;2.272;2022-12-11T04:47:37;13.63;;;7.38;;
10226;SDS011;15634;48.766;2.272;2022-12-11T04:50:05;13.05;;;6.88;;
10226;SDS011;15634;48.766;2.272;2022-12-11T04:52:32;15.27;;;7.57;;
10226;SDS011;15634;48.766;2.272;2022-12-11T04:54:59;14.07;;;7.78;;
10226;SDS011;15634;48.766;2.272;2022-12-11T04:57:26;15.15;;;7.68;;
10226;SDS011;15634;48.766;2.272;2022-12-11T04:59:54;13.85;;;7.50;;
10226;SDS011;15634;48.766;2.272;2022-12-11T05:02:20;13.75;;;7.38;;
10226;SDS011;15634;48.766;2.272;2022-12-11T05:04:47;15.52;;;7.65;;
10226;SDS011;15634;48.766;2.272;2022-12-11T05:07:13;16.98;;;7.93;;
10226;SDS011;15634;48.766;2.272;2022-12-11T05:09:40;14.88;;;7.90;;
10226;SDS011;15634;48.766;2.272;2022-12-11T05:12:07;12.43;;;6.85;;
10226;SDS011;15634;48.766;2.272;2022-12-11T05:14:33;13.98;;;7.65;;
10226;SDS011;15634;48.766;2.272;2022-12-11T05:17:01;15.40;;;7.03;;
10226;SDS011;15634;48.766;2.272;2022-12-11T05:19:28;14.93;;;6.68;;
10226;SDS011;15634;48.766;2.272;2022-12-11T05:21:54;11.75;;;6.82;;
10226;SDS011;15634;48.766;2.272;2022-12-11T05:24:21;15.65;;;8.85;;
10226;SDS011;15634;48.766;2.272;2022-12-11T05:26:47;11.77;;;6.75;;
10226;SDS011;15634;48.766;2.272;2022-12-11T05:29:14;13.68;;;6.78;;
10226;SDS011;15634;48.766;2.272;2022-12-11T05:31:41;12.82;;;6.75;;
10226;SDS011;15634;48.766;2.272;2022-12-11T05:34:09;14.23;;;7.25;;
10226;SDS011;15634;48.766;2.272;2022-12-11T05:36:35;14.93;;;8.27;;
10226;SDS011;15634;48.766;2.272;2022-12-11T05:39:02;15.60;;;7.32;;
10226;SDS011;15634;48.766;2.272;2022-12-11T05:41:29;16.67;;;8.07;;
10226;SDS011;15634;48.766;2.272;2022-12-11T05:43:57;15.57;;;7.95;;
10226;SDS011;15634;48.766;2.272;2022-12-11T05:46:24;20.42;;;9.38;;
10226;SDS011;15634;48.766;2.272;2022-12-11T05:48:53;17.42;;;8.82;;
10226;SDS011;15634;48.766;2.272;2022-12-11T05:51:21;15.88;;;8.57;;
10226;SDS011;15634;48.766;2.272;2022-12-11T05:53:49;19.00;;;8.80;;
10226;SDS011;15634;48.766;2.272;2022-12-11T05:56:17;16.95;;;8.90;;
10226;SDS011;15634;48.766;2.272;2022-12-11T05:58:44;15.15;;;8.57;;
10226;SDS011;15634;48.766;2.272;2022-12-11T06:01:13;17.65;;;8.73;;
10226;SDS011;15634;48.766;2.272;2022-12-11T06:03:40;15.60;;;7.93;;
10226;SDS011;15634;48.766;2.272;2022-12-11T06:06:07;17.45;;;9.60;;
10226;SDS011;15634;48.766;2.272;2022-12-11T06:08:35;18.73;;;9.80;;
10226;SDS011;15634;48.766;2.272;2022-12-11T06:11:02;16.80;;;8.98;;
10226;SDS011;15634;48.766;2.272;2022-12-11T06:13:29;21.73;;;10.45;;
10226;SDS011;15634;48.766;2.272;2022-12-11T06:15:58;19.30;;;9.60;;
10226;SDS011;15634;48.766;2.272;2022-12-11T06:18:25;21.63;;;10.35;;
10226;SDS011;15634;48.766;2.272;2022-12-11T06:20:52;21.55;;;9.98;;
10226;SDS011;15634;48.766;2.272;2022-12-11T06:23:19;18.75;;;9.07;;
10226;SDS011;15634;48.766;2.272;2022-12-11T06:25:47;20.85;;;11.10;;
10226;SDS011;15634;48.766;2.272;2022-12-11T06:28:13;19.77;;;10.38;;
10226;SDS011;15634;48.766;2.272;2022-12-11T06:30:40;20.80;;;10.55;;
10226;SDS011;15634;48.766;2.272;2022-12-11T06:33:06;21.40;;;11.23;;
10226;SDS011;15634;48.766;2.272;2022-12-11T06:35:33;27.50;;;12.60;;
10226;SDS011;15634;48.766;2.272;2022-12-11T06:38:00;26.13;;;13.32;;
10226;SDS011;15634;48.766;2.272;2022-12-11T06:40:26;27.15;;;12.75;;
10226;SDS011;15634;48.766;2.272;2022-12-11T06:42:54;24.88;;;12.88;;
10226;SDS011;15634;48.766;2.272;2022-12-11T06:45:21;24.08;;;12.43;;
10226;SDS011;15634;48.766;2.272;2022-12-11T06:47:47;28.75;;;13.68;;
10226;SDS011;15634;48.766;2.272;2022-12-11T06:50:14;26.58;;;13.75;;
10226;SDS011;15634;48.766;2.272;2022-12-11T06:52:41;29.30;;;15.05;;
10226;SDS011;15634;48.766;2.272;2022-12-11T06:55:07;31.38;;;15.10;;
10226;SDS011;15634;48.766;2.272;2022-12-11T06:57:34;37.97;;;16.27;;
10226;SDS011;15634;48.766;2.272;2022-12-11T07:00:02;29.98;;;15.30;;
10226;SDS011;15634;48.766;2.272;2022-12-11T07:02:30;32.55;;;15.77;;
10226;SDS011;15634;48.766;2.272;2022-12-11T07:04:56;35.33;;;16.65;;
10226;SDS011;15634;48.766;2.272;2022-12-11T07:07:23;35.42;;;16.20;;
10226;SDS011;15634;48.766;2.272;2022-12-11T07:09:50;36.22;;;16.13;;
10226;SDS011;15634;48.766;2.272;2022-12-11T07:12:17;34.92;;;16.98;;
10226;SDS011;15634;48.766;2.272;2022-12-11T07:14:43;34.83;;;17.15;;
10226;SDS011;15634;48.766;2.272;2022-12-11T07:17:11;37.45;;;17.27;;
10226;SDS011;15634;48.766;2.272;2022-12-11T07:19:38;40.67;;;18.60;;
10226;SDS011;15634;48.766;2.272;2022-12-11T07:22:04;38.40;;;17.52;;
10226;SDS011;15634;48.766;2.272;2022-12-11T07:24:31;36.13;;;16.85;;
10226;SDS011;15634;48.766;2.272;2022-12-11T07:26:58;39.35;;;16.60;;
10226;SDS011;15634;48.766;2.272;2022-12-11T07:29:24;35.95;;;18.10;;
10226;SDS011;15634;48.766;2.272;2022-12-11T07:31:51;39.22;;;17.45;;
10226;SDS011;15634;48.766;2.272;2022-12-11T07:34:19;34.75;;;17.85;;
10226;SDS011;15634;48.766;2.272;2022-12-11T07:36:46;35.67;;;17.77;;
10226;SDS011;15634;48.766;2.272;2022-12-11T07:39:12;32.55;;;16.50;;
10226;SDS011;15634;48.766;2.272;2022-12-11T07:41:39;34.72;;;17.50;;
10226;SDS011;15634;48.766;2.272;2022-12-11T07:44:05;36.55;;;18.35;;
10226;SDS011;15634;48.766;2.272;2022-12-11T07:46:32;33.33;;;17.17;;
10226;SDS011;15634;48.766;2.272;2022-12-11T07:49:00;33.30;;;17.02;;
10226;SDS011;15634;48.766;2.272;2022-12-11T07:51:28;35.20;;;17.70;;
10226;SDS011;15634;48.766;2.272;2022-12-11T07:53:57;35.38;;;17.70;;
10226;SDS011;15634;48.766;2.272;2022-12-11T07:56:26;33.65;;;18.00;;
10226;SDS011;15634;48.766;2.272;2022-12-11T07:58:53;32.67;;;16.60;;
10226;SDS011;15634;48.766;2.272;2022-12-11T08:01:20;36.80;;;17.38;;
10226;SDS011;15634;48.766;2.272;2022-12-11T08:03:50;36.03;;;18.10;;
10226;SDS011;15634;48.766;2.272;2022-12-11T08:06:17;35.08;;;18.10;;
10226;SDS011;15634;48.766;2.272;2022-12-11T08:08:46;32.25;;;16.58;;
10226;SDS011;15634;48.766;2.272;2022-12-11T08:11:13;36.13;;;16.85;;
10226;SDS011;15634;48.766;2.272;2022-12-11T08:13:41;33.28;;;16.88;;
10226;SDS011;15634;48.766;2.272;2022-12-11T08:16:09;30.50;;;15.10;;
10226;SDS011;15634;48.766;2.272;2022-12-11T08:18:37;26.15;;;14.32;;
10226;SDS011;15634;48.766;2.272;2022-12-11T08:21:04;28.15;;;15.02;;
10226;SDS011;15634;48.766;2.272;2022-12-11T08:23:32;28.65;;;14.80;;
10226;SDS011;15634;48.766;2.272;2022-12-11T08:26:01;28.23;;;14.35;;
10226;SDS011;15634;48.766;2.272;2022-12-11T08:28:29;31.10;;;15.38;;
10226;SDS011;15634;48.766;2.272;2022-12-11T08:30:55;29.88;;;13.95;;
10226;SDS011;15634;48.766;2.272;2022-12-11T08:33:22;27.13;;;13.88;;
10226;SDS011;15634;48.766;2.272;2022-12-11T08:35:49;26.27;;;13.35;;
10226;SDS011;15634;48.766;2.272;2022-12-11T08:38:15;23.98;;;12.80;;
10226;SDS011;15634;48.766;2.272;2022-12-11T08:40:42;26.45;;;12.75;;
10226;SDS011;15634;48.766;2.272;2022-12-11T08:43:10;25.58;;;12.88;;
10226;SDS011;15634;48.766;2.272;2022-12-11T08:45:37;27.48;;;13.95;;
10226;SDS011;15634;48.766;2.272;2022-12-11T08:48:04;27.85;;;13.77;;
10226;SDS011;15634;48.766;2.272;2022-12-11T08:50:31;27.88;;;14.10;;
10226;SDS011;15634;48.766;2.272;2022-12-11T08:52:58;23.73;;;12.93;;
10226;SDS011;15634;48.766;2.272;2022-12-11T08:55:25;23.35;;;11.90;;
10226;SDS011;15634;48.766;2.272;2022-12-11T08:57:52;30.48;;;13.60;;
10226;SDS011;15634;48.766;2.272;2022-12-11T09:00:20;24.77;;;12.43;;
10226;SDS011;15634;48.766;2.272;2022-12-11T09:02:46;23.50;;;12.38;;
10226;SDS011;15634;48.766;2.272;2022-12-11T09:05:13;26.25;;;12.50;;
10226;SDS011;15634;48.766;2.272;2022-12-11T09:07:40;21.30;;;11.75;;
10226;SDS011;15634;48.766;2.272;2022-12-11T09:10:07;26.65;;;13.13;;
10226;SDS011;15634;48.766;2.272;2022-12-11T09:12:34;24.08;;;12.32;;
10226;SDS011;15634;48.766;2.272;2022-12-11T09:15:02;25.15;;;12.60;;
10226;SDS011;15634;48.766;2.272;2022-12-11T09:17:30;26.77;;;12.80;;
10226;SDS011;15634;48.766;2.272;2022-12-11T09:19:57;24.98;;;12.95;;
10226;SDS011;15634;48.766;2.272;2022-12-11T09:22:23;23.25;;;12.57;;
10226;SDS011;15634;48.766;2.272;2022-12-11T09:24:50;24.50;;;12.40;;
10226;SDS011;15634;48.766;2.272;2022-12-11T09:27:16;27.65;;;13.02;;
10226;SDS011;15634;48.766;2.272;2022-12-11T09:29:45;34.22;;;17.42;;
10226;SDS011;15634;48.766;2.272;2022-12-11T09:32:11;27.27;;;14.57;;
10226;SDS011;15634;48.766;2.272;2022-12-11T09:34:39;23.10;;;11.70;;
10226;SDS011;15634;48.766;2.272;2022-12-11T09:37:07;22.75;;;11.82;;
10226;SDS011;15634;48.766;2.272;2022-12-11T09:39:34;23.27;;;12.73;;
10226;SDS011;15634;48.766;2.272;2022-12-11T09:42:02;22.63;;;11.93;;
10226;SDS011;15634;48.766;2.272;2022-12-11T09:44:33;23.45;;;12.05;;
10226;SDS011;15634;48.766;2.272;2022-12-11T09:47:02;23.00;;;11.95;;
10226;SDS011;15634;48.766;2.272;2022-12-11T09:49:42;25.77;;;13.20;;
10226;SDS011;15634;48.766;2.272;2022-12-11T09:52:11;22.98;;;12.00;;
10226;SDS011;15634;48.766;2.272;2022-12-11T09:54:42;23.23;;;12.57;;
10226;SDS011;15634;48.766;2.272;2022-12-11T09:57:15;24.77;;;11.88;;
10226;SDS011;15634;48.766;2.272;2022-12-11T10:00:04;26.90;;;11.93;;
10226;SDS011;15634;48.766;2.272;2022-12-11T10:02:38;19.77;;;10.90;;
10226;SDS011;15634;48.766;2.272;2022-12-11T10:05:15;20.73;;;10.77;;
10226;SDS011;15634;48.766;2.272;2022-12-11T10:07:44;22.00;;;11.48;;
10226;SDS011;15634;48.766;2.272;2022-12-11T10:10:15;23.23;;;11.05;;
10226;SDS011;15634;48.766;2.272;2022-12-11T10:12:47;24.45;;;12.20;;
10226;SDS011;15634;48.766;2.272;2022-12-11T10:15:23;23.13;;;11.57;;
10226;SDS011;15634;48.766;2.272;2022-12-11T10:17:56;24.42;;;12.20;;
10226;SDS011;15634;48.766;2.272;2022-12-11T10:20:32;21.55;;;11.30;;
10226;SDS011;15634;48.766;2.272;2022-12-11T10:23:04;21.77;;;11.20;;
10226;SDS011;15634;48.766;2.272;2022-12-11T10:25:33;20.55;;;11.45;;
10226;SDS011;15634;48.766;2.272;2022-12-11T10:28:07;23.98;;;12.15;;
10226;SDS011;15634;48.766;2.272;2022-12-11T10:30:38;22.88;;;11.43;;
10226;SDS011;15634;48.766;2.272;2022-12-11T10:33:06;22.15;;;12.10;;
10226;SDS011;15634;48.766;2.272;2022-12-11T10:35:42;26.52;;;12.85;;
10226;SDS011;15634;48.766;2.272;2022-12-11T10:38:12;24.20;;;12.40;;
10226;SDS011;15634;48.766;2.272;2022-12-11T10:40:42;23.17;;;12.95;;
10226;SDS011;15634;48.766;2.272;2022-12-11T10:43:10;22.27;;;11.88;;
10226;SDS011;15634;48.766;2.272;2022-12-11T10:45:37;28.63;;;13.68;;
10226;SDS011;15634;48.766;2.272;2022-12-11T10:48:04;24.80;;;13.00;;
10226;SDS011;15634;48.766;2.272;2022-12-11T10:50:32;25.77;;;13.18;;
10226;SDS011;15634;48.766;2.272;2022-12-11T10:53:00;22.50;;;11.68;;
10226;SDS011;15634;48.766;2.272;2022-12-11T10:55:28;24.58;;;12.80;;
10226;SDS011;15634;48.766;2.272;2022-12-11T10:58:06;23.35;;;12.45;;
10226;SDS011;15634;48.766;2.272;2022-12-11T11:00:40;25.65;;;11.93;;
10226;SDS011;15634;48.766;2.272;2022-12-11T11:03:18;20.67;;;11.60;;
10226;SDS011;15634;48.766;2.272;2022-12-11T11:05:47;20.05;;;11.02;;
10226;SDS011;15634;48.766;2.272;2022-12-11T11:08:17;22.92;;;12.10;;
10226;SDS011;15634;48.766;2.272;2022-12-11T11:10:49;22.48;;;11.75;;
10226;SDS011;15634;48.766;2.272;2022-12-11T11:13:16;23.25;;;11.82;;
10226;SDS011;15634;48.766;2.272;2022-12-11T11:15:43;21.48;;;12.55;;
10226;SDS011;15634;48.766;2.272;2022-12-11T11:18:10;24.17;;;12.10;;
10226;SDS011;15634;48.766;2.272;2022-12-11T11:20:41;21.88;;;12.20;;
10226;SDS011;15634;48.766;2.272;2022-12-11T11:23:11;19.93;;;11.90;;
10226;SDS011;15634;48.766;2.272;2022-12-11T11:25:46;22.10;;;12.20;;
10226;SDS011;15634;48.766;2.272;2022-12-11T11:28:15;21.88;;;12.10;;
10226;SDS011;15634;48.766;2.272;2022-12-11T11:30:52;20.77;;;11.88;;
10226;SDS011;15634;48.766;2.272;2022-12-11T11:33:24;22.38;;;12.32;;
10226;SDS011;15634;48.766;2.272;2022-12-11T11:35:51;23.83;;;12.70;;
10226;SDS011;15634;48.766;2.272;2022-12-11T11:38:20;22.85;;;11.52;;
10226;SDS011;15634;48.766;2.272;2022-12-11T11:40:50;22.83;;;12.07;;
10226;SDS011;15634;48.766;2.272;2022-12-11T11:43:25;24.33;;;12.80;;
10226;SDS011;15634;48.766;2.272;2022-12-11T11:45:58;22.08;;;12.88;;
10226;SDS011;15634;48.766;2.272;2022-12-11T11:48:29;26.63;;;13.23;;
10226;SDS011;15634;48.766;2.272;2022-12-11T11:50:59;26.73;;;13.43;;
10226;SDS011;15634;48.766;2.272;2022-12-11T11:53:31;25.60;;;13.45;;
10226;SDS011;15634;48.766;2.272;2022-12-11T11:56:04;26.48;;;14.45;;
10226;SDS011;15634;48.766;2.272;2022-12-11T11:58:38;25.17;;;13.85;;
10226;SDS011;15634;48.766;2.272;2022-12-11T12:01:09;25.10;;;13.88;;
10226;SDS011;15634;48.766;2.272;2022-12-11T12:03:38;24.38;;;14.45;;
10226;SDS011;15634;48.766;2.272;2022-12-11T12:06:06;27.83;;;14.35;;
10226;SDS011;15634;48.766;2.272;2022-12-11T12:08:39;23.90;;;12.85;;
10226;SDS011;15634;48.766;2.272;2022-12-11T12:11:10;22.73;;;12.18;;
10226;SDS011;15634;48.766;2.272;2022-12-11T12:13:43;25.73;;;13.80;;
10226;SDS011;15634;48.766;2.272;2022-12-11T12:16:19;22.98;;;13.45;;
10226;SDS011;15634;48.766;2.272;2022-12-11T12:18:50;23.35;;;13.27;;
10226;SDS011;15634;48.766;2.272;2022-12-11T12:21:23;24.02;;;12.77;;
10226;SDS011;15634;48.766;2.272;2022-12-11T12:26:27;22.08;;;12.70;;
10226;SDS011;15634;48.766;2.272;2022-12-11T12:28:58;19.73;;;11.55;;
10226;SDS011;15634;48.766;2.272;2022-12-11T12:31:42;23.40;;;12.18;;
10226;SDS011;15634;48.766;2.272;2022-12-11T12:34:18;23.13;;;12.88;;
10226;SDS011;15634;48.766;2.272;2022-12-11T12:36:53;25.77;;;13.23;;
10226;SDS011;15634;48.766;2.272;2022-12-11T12:39:24;25.98;;;14.07;;
10226;SDS011;15634;48.766;2.272;2022-12-11T12:44:27;23.88;;;12.98;;
10226;SDS011;15634;48.766;2.272;2022-12-11T12:46:57;22.85;;;12.70;;
10226;SDS011;15634;48.766;2.272;2022-12-11T12:49:35;24.60;;;13.80;;
10226;SDS011;15634;48.766;2.272;2022-12-11T12:52:04;22.75;;;13.38;;
10226;SDS011;15634;48.766;2.272;2022-12-11T12:54:32;26.52;;;13.48;;
10226;SDS011;15634;48.766;2.272;2022-12-11T12:57:00;23.85;;;13.23;;
10226;SDS011;15634;48.766;2.272;2022-12-11T12:59:28;23.60;;;13.13;;
10226;SDS011;15634;48.766;2.272;2022-12-11T13:01:55;22.25;;;12.98;;
10226;SDS011;15634;48.766;2.272;2022-12-11T13:04:28;20.67;;;12.20;;
10226;SDS011;15634;48.766;2.272;2022-12-11T13:07:08;22.88;;;13.13;;
10226;SDS011;15634;48.766;2.272;2022-12-11T13:09:36;21.42;;;13.05;;
10226;SDS011;15634;48.766;2.272;2022-12-11T13:12:10;24.80;;;13.50;;
10226;SDS011;15634;48.766;2.272;2022-12-11T13:14:38;25.80;;;14.15;;
10226;SDS011;15634;48.766;2.272;2022-12-11T13:17:06;25.33;;;14.13;;
10226;SDS011;15634;48.766;2.272;2022-12-11T13:19:48;27.27;;;14.98;;
10226;SDS011;15634;48.766;2.272;2022-12-11T13:22:20;27.63;;;13.80;;
10226;SDS011;15634;48.766;2.272;2022-12-11T13:24:47;26.65;;;14.18;;
10226;SDS011;15634;48.766;2.272;2022-12-11T13:27:23;24.42;;;14.25;;
10226;SDS011;15634;48.766;2.272;2022-12-11T13:29:51;23.10;;;13.07;;
10226;SDS011;15634;48.766;2.272;2022-12-11T13:32:29;25.80;;;13.65;;
10226;SDS011;15634;48.766;2.272;2022-12-11T13:34:57;26.67;;;13.52;;
10226;SDS011;15634;48.766;2.272;2022-12-11T13:37:26;27.27;;;15.00;;
10226;SDS011;15634;48.766;2.272;2022-12-11T13:39:55;24.77;;;14.10;;
10226;SDS011;15634;48.766;2.272;2022-12-11T13:42:26;26.73;;;15.02;;
10226;SDS011;15634;48.766;2.272;2022-12-11T13:44:54;25.50;;;15.55;;
10226;SDS011;15634;48.766;2.272;2022-12-11T13:47:21;24.05;;;13.48;;
10226;SDS011;15634;48.766;2.272;2022-12-11T13:49:54;23.80;;;13.35;;
10226;SDS011;15634;48.766;2.272;2022-12-11T13:52:24;23.45;;;14.57;;
10226;SDS011;15634;48.766;2.272;2022-12-11T13:54:53;25.77;;;13.65;;
10226;SDS011;15634;48.766;2.272;2022-12-11T13:57:24;24.75;;;14.35;;
10226;SDS011;15634;48.766;2.272;2022-12-11T13:59:52;24.73;;;13.70;;
10226;SDS011;15634;48.766;2.272;2022-12-11T14:02:21;26.52;;;13.25;;
10226;SDS011;15634;48.766;2.272;2022-12-11T14:04:51;23.40;;;13.30;;
10226;SDS011;15634;48.766;2.272;2022-12-11T14:07:21;25.58;;;13.65;;
10226;SDS011;15634;48.766;2.272;2022-12-11T14:09:50;23.67;;;14.13;;
10226;SDS011;15634;48.766;2.272;2022-12-11T14:12:18;26.02;;;13.77;;
10226;SDS011;15634;48.766;2.272;2022-12-11T14:14:47;28.98;;;15.38;;
10226;SDS011;15634;48.766;2.272;2022-12-11T14:17:18;23.45;;;14.02;;
10226;SDS011;15634;48.766;2.272;2022-12-11T14:19:49;25.00;;;13.45;;
10226;SDS011;15634;48.766;2.272;2022-12-11T14:22:16;28.02;;;15.45;;
10226;SDS011;15634;48.766;2.272;2022-12-11T14:24:47;28.60;;;14.90;;
10226;SDS011;15634;48.766;2.272;2022-12-11T14:27:15;27.83;;;15.15;;
10226;SDS011;15634;48.766;2.272;2022-12-11T14:29:42;25.92;;;14.52;;
10226;SDS011;15634;48.766;2.272;2022-12-11T14:32:16;28.00;;;15.77;;
10226;SDS011;15634;48.766;2.272;2022-12-11T14:34:44;24.67;;;14.70;;
10226;SDS011;15634;48.766;2.272;2022-12-11T14:37:11;31.00;;;16.17;;
10226;SDS011;15634;48.766;2.272;2022-12-11T14:39:40;28.27;;;14.70;;
10226;SDS011;15634;48.766;2.272;2022-12-11T14:42:11;29.75;;;16.35;;
10226;SDS011;15634;48.766;2.272;2022-12-11T14:44:42;29.25;;;16.00;;